Time;durP1;ratioP1;P1;durP2;ratioP2;P2;SDS_P1;SDS_P2;PMS_P1;PMS_P2;Temp;Humidity;BMP_temperature;BMP_pressure;BME280_temperature;BME280_humidity;BME280_pressure;Samples;Min_cycle;Max_cycle;Signal;HPM_P1;HPM_P2
2023/11/24 00:01:06;;;;;;;5.18;1.45;;;;;;;6.64;100.00;100018.53;4822416;29;20058;-81
2023/11/24 00:03:36;;;;;;;8.18;1.73;;;;;;;6.57;100.00;100002.06;4815343;29;20053;-81
2023/11/24 00:06:07;;;;;;;5.13;1.50;;;;;;;6.58;100.00;100009.88;4830942;29;20136;-81
2023/11/24 00:08:35;;;;;;;8.48;1.35;;;;;;;6.60;100.00;100015.06;4818105;29;20100;-83
2023/11/24 00:11:03;;;;;;;12.40;2.08;;;;;;;6.57;100.00;100000.34;4831552;29;21297;-82
2023/11/24 00:13:30;;;;;;;7.60;1.40;;;;;;;6.55;100.00;99989.06;4824359;29;20500;-81
2023/11/24 00:15:57;;;;;;;8.35;1.73;;;;;;;6.58;100.00;100009.00;4831771;29;20041;-83
2023/11/24 00:18:26;;;;;;;8.05;1.45;;;;;;;6.61;100.00;100020.25;4816273;29;20061;-82
2023/11/24 00:20:53;;;;;;;7.05;2.28;;;;;;;6.65;100.00;100000.31;4819973;29;20248;-82
2023/11/24 00:23:20;;;;;;;12.40;1.75;;;;;;;6.67;100.00;99995.94;4832728;29;20044;-81
2023/11/24 00:25:47;;;;;;;6.15;1.58;;;;;;;6.71;100.00;100004.63;4828619;29;20050;-81
2023/11/24 00:28:15;;;;;;;8.52;2.08;;;;;;;6.73;100.00;100018.50;4839212;29;20144;-82
2023/11/24 00:30:42;;;;;;;14.23;2.85;;;;;;;6.81;100.00;100014.13;4817494;29;20063;-81
2023/11/24 00:33:11;;;;;;;6.20;1.23;;;;;;;6.89;100.00;100012.34;4824764;29;20094;-80
2023/11/24 00:35:37;;;;;;;10.20;1.92;;;;;;;6.93;100.00;100010.59;4828999;29;20042;-83
2023/11/24 00:38:08;;;;;;;11.07;1.70;;;;;;;6.94;100.00;100018.38;4837721;29;20109;-81
2023/11/24 00:40:41;;;;;;;8.93;2.20;;;;;;;6.87;100.00;100008.00;4823222;29;20062;-83
2023/11/24 00:43:11;;;;;;;4.55;1.85;;;;;;;6.84;100.00;100034.91;4829284;29;20056;-82
2023/11/24 00:45:40;;;;;;;5.25;1.00;;;;;;;6.82;100.00;100026.25;4819753;29;20069;-82
2023/11/24 00:48:06;;;;;;;14.48;2.40;;;;;;;6.69;100.00;100024.56;4826703;29;20054;-82
2023/11/24 00:50:35;;;;;;;6.65;1.75;;;;;;;6.58;100.00;100019.38;4823575;29;20069;-82
2023/11/24 00:53:02;;;;;;;6.15;1.55;;;;;;;6.49;100.00;100016.81;4850577;29;20049;-81
2023/11/24 00:55:30;;;;;;;5.40;0.77;;;;;;;6.40;100.00;100015.97;4820563;29;20094;-82
2023/11/24 00:57:57;;;;;;;5.95;0.98;;;;;;;6.33;100.00;100016.00;4843008;29;20069;-83
2023/11/24 01:00:24;;;;;;;7.63;1.00;;;;;;;6.26;100.00;100026.41;4807810;29;20086;-83
2023/11/24 01:02:53;;;;;;;7.95;1.95;;;;;;;6.27;100.00;100032.44;4839347;29;20409;-82
2023/11/24 01:05:21;;;;;;;6.72;1.65;;;;;;;6.29;100.00;100043.72;4826674;29;20048;-82
2023/11/24 01:07:48;;;;;;;11.98;2.85;;;;;;;6.34;100.00;100035.94;4829940;29;20058;-82
2023/11/24 01:10:15;;;;;;;6.25;1.45;;;;;;;6.35;100.00;100037.63;4840609;29;20055;-81
2023/11/24 01:12:43;;;;;;;8.75;1.75;;;;;;;6.36;100.00;100032.47;4825144;29;20045;-81
2023/11/24 01:15:12;;;;;;;6.65;2.33;;;;;;;6.42;100.00;100039.38;4838073;29;20053;-81
2023/11/24 01:17:44;;;;;;;12.27;1.92;;;;;;;6.44;100.00;100015.09;4823763;29;20172;-82
2023/11/24 01:20:12;;;;;;;9.00;2.25;;;;;;;6.45;100.00;100040.25;4840783;29;20121;-81
2023/11/24 01:22:40;;;;;;;6.13;2.30;;;;;;;6.42;100.00;100034.16;4817358;29;20165;-81
2023/11/24 01:25:10;;;;;;;5.82;1.92;;;;;;;6.32;100.00;100032.44;4835442;29;20119;-83
2023/11/24 01:27:37;;;;;;;13.80;2.28;;;;;;;6.26;100.00;100033.34;4825186;29;20057;-81
2023/11/24 01:30:04;;;;;;;21.15;2.42;;;;;;;6.19;100.00;100044.59;4842069;29;20105;-83
2023/11/24 01:32:33;;;;;;;8.70;1.40;;;;;;;6.13;100.00;100035.09;4824818;29;20046;-82
2023/11/24 01:34:59;;;;;;;5.72;1.00;;;;;;;6.07;100.00;100029.88;4819930;29;20045;-82
2023/11/24 01:37:27;;;;;;;6.55;1.20;;;;;;;5.97;100.00;100028.97;4828256;29;20068;-82
2023/11/24 01:39:54;;;;;;;7.05;1.17;;;;;;;5.91;100.00;100022.06;4835518;29;20053;-82
2023/11/24 01:42:21;;;;;;;6.82;1.80;;;;;;;5.80;100.00;100014.25;4821432;29;20045;-82
2023/11/24 01:44:50;;;;;;;7.93;1.70;;;;;;;5.79;100.00;100011.69;4813915;29;20058;-81
2023/11/24 01:47:22;;;;;;;11.10;2.42;;;;;;;5.72;100.00;100018.59;4836326;29;20064;-83
2023/11/24 01:49:49;;;;;;;9.35;1.90;;;;;;;5.67;100.00;100017.72;4833871;29;20057;-81
2023/11/24 01:52:19;;;;;;;11.85;1.80;;;;;;;5.64;100.00;100012.50;4820117;29;20092;-80
2023/11/24 01:54:49;;;;;;;6.53;1.35;;;;;;;5.59;100.00;100006.44;4856490;29;20041;-81
2023/11/24 01:57:17;;;;;;;11.27;2.20;;;;;;;5.59;100.00;100006.44;4839720;29;20512;-82
2023/11/24 01:59:43;;;;;;;9.63;1.70;;;;;;;5.57;100.00;100011.66;4834938;29;20144;-82
2023/11/24 02:02:10;;;;;;;9.75;1.50;;;;;;;5.54;100.00;100002.97;4822061;29;20050;-81
2023/11/24 02:04:39;;;;;;;8.60;1.92;;;;;;;5.53;100.00;99996.06;4850441;29;20395;-82
2023/11/24 02:07:12;;;;;;;8.50;1.65;;;;;;;5.54;100.00;100002.97;4847936;29;20048;-82
2023/11/24 02:09:41;;;;;;;13.13;2.08;;;;;;;5.56;100.00;99983.94;4826387;29;20045;-81
2023/11/24 02:12:08;;;;;;;17.67;3.10;;;;;;;5.56;100.00;99977.91;4828739;29;20058;-82
2023/11/24 02:14:35;;;;;;;10.10;2.13;;;;;;;5.62;100.00;99970.97;4835599;29;20095;-83
2023/11/24 02:17:01;;;;;;;12.07;2.20;;;;;;;5.60;100.00;99964.91;4820957;29;20117;-81
2023/11/24 02:19:29;;;;;;;10.70;4.13;;;;;;;5.69;100.00;99966.66;4815190;29;20498;-82
2023/11/24 02:21:58;;;;;;;10.98;2.45;;;;;;;5.70;100.00;99986.56;4820638;29;20068;-82
2023/11/24 02:24:26;;;;;;;15.50;3.85;;;;;;;5.74;100.00;99964.91;4825057;29;20064;-81
2023/11/24 02:26:53;;;;;;;13.45;2.65;;;;;;;5.74;100.00;99970.09;4833546;29;20430;-82
2023/11/24 02:29:25;;;;;;;11.05;3.20;;;;;;;5.74;100.00;99977.03;4822343;29;20053;-81
2023/11/24 02:31:52;;;;;;;7.80;3.00;;;;;;;5.69;100.00;99978.78;4821274;29;20045;-81
2023/11/24 02:34:20;;;;;;;22.10;3.88;;;;;;;5.63;100.00;99977.91;4838979;29;20135;-82
2023/11/24 02:36:52;;;;;;;14.27;2.85;;;;;;;5.59;100.00;99978.78;4825214;29;20138;-82
2023/11/24 02:39:22;;;;;;;15.05;3.60;;;;;;;5.54;100.00;99988.28;4839928;29;20215;-81
2023/11/24 02:41:49;;;;;;;9.73;3.60;;;;;;;5.50;100.00;99983.97;4837333;29;20053;-81
2023/11/24 02:44:16;;;;;;;11.90;2.42;;;;;;;5.50;100.00;99978.78;4835149;29;20072;-81
2023/11/24 02:46:46;;;;;;;11.50;2.67;;;;;;;5.51;100.00;99987.41;4835150;29;20057;-81
2023/11/24 02:49:14;;;;;;;11.98;2.60;;;;;;;5.47;100.00;99989.13;4828499;29;20598;-82
2023/11/24 02:51:41;;;;;;;10.05;2.30;;;;;;;5.52;100.00;99984.81;4820448;29;20060;-82
2023/11/24 02:54:07;;;;;;;17.65;2.70;;;;;;;5.54;100.00;99987.41;4821729;29;20085;-82
2023/11/24 02:56:35;;;;;;;15.27;3.22;;;;;;;5.60;100.00;99983.06;4836871;29;20051;-82
2023/11/24 02:59:02;;;;;;;15.63;2.30;;;;;;;5.68;100.00;99983.09;4823855;29;20038;-82
2023/11/24 03:01:29;;;;;;;4.35;2.03;;;;;;;5.75;100.00;99971.84;4831758;29;20421;-81
2023/11/24 03:03:58;;;;;;;15.75;2.72;;;;;;;5.73;100.00;99976.16;4829315;29;20128;-80
2023/11/24 03:06:37;;;;;;;;;;;;;;;;;;;;;
2023/11/24 03:09:06;;;;;;;13.95;3.25;;;;;;;5.72;100.00;99976.16;4824859;29;20053;-83
2023/11/24 03:11:33;;;;;;;9.50;1.85;;;;;;;5.74;100.00;99956.28;4843925;29;20037;-81
2023/11/24 03:14:00;;;;;;;14.05;2.13;;;;;;;5.70;100.00;99954.53;4824256;29;20053;-83
2023/11/24 03:16:27;;;;;;;11.82;2.30;;;;;;;5.63;100.00;99944.16;4837078;29;20116;-81
2023/11/24 03:18:55;;;;;;;10.23;2.38;;;;;;;5.60;100.00;99949.31;4839297;29;20050;-81
2023/11/24 03:21:22;;;;;;;15.38;3.47;;;;;;;5.55;100.00;99956.25;4824501;29;20112;-82
2023/11/24 03:23:48;;;;;;;16.15;2.25;;;;;;;5.54;100.00;99946.75;4822695;29;20049;-81
2023/11/24 03:26:15;;;;;;;14.75;2.78;;;;;;;5.53;100.00;99949.31;4836914;29;20083;-81
2023/11/24 03:28:45;;;;;;;14.65;2.45;;;;;;;5.57;100.00;99945.88;4822596;29;20045;-81
2023/11/24 03:31:15;;;;;;;11.65;2.88;;;;;;;5.57;100.00;99951.94;4816957;29;20049;-83
2023/11/24 03:33:42;;;;;;;20.13;2.78;;;;;;;5.58;100.00;99938.09;4842391;29;20427;-80
2023/11/24 03:36:10;;;;;;;17.90;2.85;;;;;;;5.58;100.00;99945.88;4820707;29;20061;-81
2023/11/24 03:38:38;;;;;;;13.50;2.83;;;;;;;5.54;100.00;99933.78;4833955;29;20053;-81
2023/11/24 03:41:05;;;;;;;21.05;3.08;;;;;;;5.59;100.00;99938.94;4824105;29;20057;-80
2023/11/24 03:43:35;;;;;;;17.02;2.35;;;;;;;5.66;100.00;99937.22;4834959;29;20066;-82
2023/11/24 03:46:01;;;;;;;9.32;3.03;;;;;;;5.72;100.00;99939.81;4813811;29;20110;-81
2023/11/24 03:48:30;;;;;;;17.42;2.35;;;;;;;5.75;100.00;99932.00;4833818;29;20049;-81
2023/11/24 03:50:58;;;;;;;13.30;1.70;;;;;;;5.75;100.00;99929.41;4818856;29;20060;-81
2023/11/24 03:53:25;;;;;;;10.10;2.00;;;;;;;5.69;100.00;99924.25;4818823;29;20060;-81
2023/11/24 03:55:52;;;;;;;13.55;3.00;;;;;;;5.59;100.00;99910.38;4829996;29;20105;-81
2023/11/24 03:58:19;;;;;;;13.75;2.50;;;;;;;5.54;100.00;99918.19;4836148;29;20054;-80
2023/11/24 04:00:46;;;;;;;12.90;2.63;;;;;;;5.51;100.00;99899.16;4837133;29;20053;-82
2023/11/24 04:03:13;;;;;;;11.73;1.90;;;;;;;5.47;100.00;99898.28;4820063;29;20061;-81
2023/11/24 04:05:39;;;;;;;15.95;2.38;;;;;;;5.43;100.00;99891.38;4814646;29;20057;-81
2023/11/24 04:08:06;;;;;;;12.73;2.92;;;;;;;5.42;100.00;99894.81;4820433;29;20048;-81
2023/11/24 04:10:33;;;;;;;11.98;3.08;;;;;;;5.45;100.00;99887.91;4823637;29;20053;-81
2023/11/24 04:13:00;;;;;;;11.75;3.45;;;;;;;5.52;100.00;99898.28;4844973;29;20052;-83
2023/11/24 04:15:26;;;;;;;8.73;2.15;;;;;;;5.55;100.00;99898.28;4824402;29;20088;-81
2023/11/24 04:17:53;;;;;;;10.82;2.20;;;;;;;5.60;100.00;99897.41;4838809;29;20052;-82
2023/11/24 04:20:20;;;;;;;9.98;1.58;;;;;;;5.59;100.00;99907.78;4838747;29;20140;-81
2023/11/24 04:22:51;;;;;;;8.75;2.83;;;;;;;5.61;100.00;99908.66;4837543;29;20102;-80
2023/11/24 04:25:18;;;;;;;16.73;2.67;;;;;;;5.63;100.00;99909.50;4823881;29;20065;-81
2023/11/24 04:27:45;;;;;;;10.18;2.10;;;;;;;5.61;100.00;99906.91;4823546;29;20061;-81
2023/11/24 04:30:12;;;;;;;9.95;1.80;;;;;;;5.55;100.00;99900.88;4824945;29;20131;-81
2023/11/24 04:32:39;;;;;;;11.20;3.28;;;;;;;5.48;100.00;99915.59;4822718;29;20157;-82
2023/11/24 04:35:07;;;;;;;11.95;2.67;;;;;;;5.42;100.00;99893.09;4834224;29;20057;-82
2023/11/24 04:37:35;;;;;;;12.85;1.88;;;;;;;5.40;100.00;99900.00;4838343;29;20053;-81
2023/11/24 04:40:05;;;;;;;8.90;1.70;;;;;;;5.36;100.00;99900.88;4818999;29;20050;-81
2023/11/24 04:42:32;;;;;;;19.60;2.42;;;;;;;5.32;100.00;99908.66;4825780;29;20076;-81
2023/11/24 04:44:58;;;;;;;7.88;2.53;;;;;;;5.24;100.00;99887.88;4836452;29;20069;-81
2023/11/24 04:47:25;;;;;;;9.43;1.80;;;;;;;5.29;100.00;99896.53;4820863;29;20062;-82
2023/11/24 04:49:51;;;;;;;8.50;2.00;;;;;;;5.22;100.00;99903.47;4832562;29;20092;-82
2023/11/24 04:52:18;;;;;;;4.97;1.45;;;;;;;5.20;100.00;99897.44;4832054;29;20041;-83
2023/11/24 04:54:45;;;;;;;9.07;1.90;;;;;;;5.21;100.00;99903.47;4837333;29;20053;-82
2023/11/24 04:57:14;;;;;;;8.13;1.48;;;;;;;5.23;100.00;99883.59;4836009;29;20038;-82
2023/11/24 04:59:41;;;;;;;8.48;1.65;;;;;;;5.22;100.00;99887.03;4850765;29;20558;-82
2023/11/24 05:02:08;;;;;;;8.32;1.55;;;;;;;5.24;100.00;99880.09;4831652;29;20588;-82
2023/11/24 05:04:46;;;;;;;6.30;1.50;;;;;;;5.23;100.00;99891.38;4826341;29;20061;-81
2023/11/24 05:07:17;;;;;;;14.75;1.67;;;;;;;5.15;100.00;99896.56;4818710;29;20050;-81
2023/11/24 05:09:45;;;;;;;9.25;1.33;;;;;;;5.13;100.00;99893.06;4823736;29;20045;-81
2023/11/24 05:12:12;;;;;;;7.07;1.02;;;;;;;5.12;100.00;99893.94;4820268;29;20073;-81
2023/11/24 05:14:39;;;;;;;12.82;1.00;;;;;;;5.09;100.00;99887.00;4824236;29;20474;-80
2023/11/24 05:17:12;;;;;;;8.65;2.17;;;;;;;5.04;100.00;99895.66;4833072;29;20063;-80
2023/11/24 05:19:41;;;;;;;8.45;1.92;;;;;;;4.97;100.00;99897.38;4833432;29;20049;-82
2023/11/24 05:22:08;;;;;;;4.78;1.02;;;;;;;5.00;100.00;99896.53;4823740;29;20053;-81
2023/11/24 05:24:39;;;;;;;5.18;1.23;;;;;;;4.98;100.00;99891.34;4834159;29;20057;-81
2023/11/24 05:27:08;;;;;;;10.23;0.95;;;;;;;4.92;100.00;99875.75;4822197;29;20053;-82
2023/11/24 05:29:35;;;;;;;9.25;1.10;;;;;;;4.90;100.00;99873.19;4825433;29;20612;-81
2023/11/24 05:32:04;;;;;;;1.35;0.50;;;;;;;4.81;100.00;99878.34;4825079;29;20045;-81
2023/11/24 05:34:31;;;;;;;4.72;0.85;;;;;;;4.75;100.00;99863.63;4839059;29;20052;-84
2023/11/24 05:37:03;;;;;;;3.17;0.73;;;;;;;4.67;100.00;99870.53;4827694;29;20677;-81
2023/11/24 05:39:31;;;;;;;3.10;0.40;;;;;;;4.60;100.00;99872.25;4835622;29;20049;-80
2023/11/24 05:41:59;;;;;;;13.73;1.60;;;;;;;4.53;100.00;99875.66;4834310;29;20226;-81
2023/11/24 05:44:26;;;;;;;5.80;0.80;;;;;;;4.48;100.00;99872.19;4821516;29;20053;-81
2023/11/24 05:46:53;;;;;;;4.85;1.48;;;;;;;4.40;100.00;99874.75;4834078;29;20053;-80
2023/11/24 05:49:19;;;;;;;5.00;1.20;;;;;;;4.35;100.00;99863.50;4850474;29;20574;-81
2023/11/24 05:51:51;;;;;;;5.55;0.82;;;;;;;4.30;100.00;99868.69;4834092;29;20248;-83
2023/11/24 05:54:18;;;;;;;6.53;0.93;;;;;;;4.27;100.00;99871.25;4844521;29;20089;-82
2023/11/24 05:56:50;;;;;;;7.18;1.23;;;;;;;4.26;100.00;99864.34;4822579;29;20145;-81
2023/11/24 05:59:17;;;;;;;7.45;1.25;;;;;;;4.21;100.00;99855.69;4836223;29;20718;-82
2023/11/24 06:01:45;;;;;;;6.70;1.55;;;;;;;4.24;100.00;99858.28;4820376;29;20064;-81
2023/11/24 06:04:12;;;;;;;11.23;2.25;;;;;;;4.22;100.00;99849.63;4822931;29;20117;-83
2023/11/24 06:06:47;;;;;;;12.23;1.95;;;;;;;4.22;100.00;99861.72;4811148;29;20060;-80
2023/11/24 06:09:13;;;;;;;7.50;1.67;;;;;;;4.23;100.00;99866.06;4841102;29;20077;-80
2023/11/24 06:11:41;;;;;;;6.75;3.50;;;;;;;4.29;100.00;99858.31;4827352;29;20623;-82
2023/11/24 06:14:20;;;;;;;13.52;1.80;;;;;;;4.25;100.00;99857.44;4813939;29;20046;-81
2023/11/24 06:16:47;;;;;;;4.20;0.75;;;;;;;4.22;100.00;99854.81;4765233;29;20068;-81
2023/11/24 06:19:14;;;;;;;5.57;1.42;;;;;;;4.30;100.00;99855.72;4823172;29;20390;-82
2023/11/24 06:21:43;;;;;;;4.70;1.90;;;;;;;4.44;100.00;99865.28;4806526;29;20561;-82
2023/11/24 06:24:10;;;;;;;12.77;1.40;;;;;;;4.53;100.00;99865.28;4805804;29;20045;-82
2023/11/24 06:26:38;;;;;;;7.13;1.45;;;;;;;4.60;100.00;99866.19;4822656;29;20057;-81
2023/11/24 06:29:06;;;;;;;6.18;1.80;;;;;;;4.61;100.00;99880.88;4823963;29;20553;-81
2023/11/24 06:31:36;;;;;;;9.60;1.50;;;;;;;4.64;100.00;99873.97;4829538;29;20113;-81
2023/11/24 06:34:09;;;;;;;2.97;1.50;;;;;;;4.71;100.00;99861.88;4811888;29;20063;-81
2023/11/24 06:36:36;;;;;;;7.28;1.30;;;;;;;4.77;100.00;99863.63;4826799;29;20149;-81
2023/11/24 06:39:10;;;;;;;4.13;0.93;;;;;;;4.76;100.00;99860.19;4818964;29;20054;-83
2023/11/24 06:41:46;;;;;;;8.38;1.15;;;;;;;4.77;100.00;99853.25;4819872;29;20073;-82
2023/11/24 06:44:13;;;;;;;2.97;1.23;;;;;;;4.78;100.00;99855.00;4811340;29;20050;-82
2023/11/24 06:46:41;;;;;;;3.17;1.27;;;;;;;4.75;100.00;99857.59;4808503;29;20053;-82
2023/11/24 06:49:09;;;;;;;4.47;1.67;;;;;;;4.75;100.00;99866.22;4819612;29;20133;-84
2023/11/24 06:51:36;;;;;;;6.00;1.40;;;;;;;4.69;100.00;99871.38;4810804;29;20140;-83
2023/11/24 06:54:03;;;;;;;7.47;2.63;;;;;;;4.72;100.00;99865.34;4812238;29;20139;-81
2023/11/24 06:56:31;;;;;;;5.57;1.05;;;;;;;4.72;100.00;99860.16;4809397;29;20066;-81
2023/11/24 06:59:01;;;;;;;4.35;0.65;;;;;;;4.67;100.00;99852.38;4830467;29;20060;-82
2023/11/24 07:01:33;;;;;;;13.68;2.13;;;;;;;4.71;100.00;99850.66;4830298;29;20583;-81
2023/11/24 07:04:02;;;;;;;2.70;1.42;;;;;;;4.72;100.00;99854.97;4806056;29;20854;-81
2023/11/24 07:06:29;;;;;;;5.70;0.88;;;;;;;4.76;100.00;99859.31;4823542;29;20050;-83
2023/11/24 07:08:56;;;;;;;5.35;0.82;;;;;;;4.69;100.00;99865.34;4818839;29;20054;-82
2023/11/24 07:11:24;;;;;;;6.75;1.88;;;;;;;4.72;100.00;99857.56;4820346;29;20057;-82
2023/11/24 07:13:51;;;;;;;9.68;1.00;;;;;;;4.77;100.00;99859.31;4832930;29;20053;-81
2023/11/24 07:16:21;;;;;;;5.80;0.70;;;;;;;4.79;100.00;99860.16;4836008;29;20048;-83
2023/11/24 07:18:49;;;;;;;4.15;0.73;;;;;;;4.82;100.00;99853.28;4834852;29;20052;-82
2023/11/24 07:21:16;;;;;;;8.73;1.27;;;;;;;4.84;100.00;99860.19;4821520;29;20074;-82
2023/11/24 07:23:43;;;;;;;8.48;1.17;;;;;;;4.85;100.00;99861.03;4839816;29;20044;-82
2023/11/24 07:26:10;;;;;;;4.80;1.13;;;;;;;4.88;100.00;99859.31;4826365;29;20111;-82
2023/11/24 07:28:36;;;;;;;8.13;2.05;;;;;;;4.85;100.00;99864.53;4825387;29;20050;-82
2023/11/24 07:31:04;;;;;;;4.18;1.65;;;;;;;4.88;100.00;99861.91;4814624;29;20982;-82
2023/11/24 07:33:34;;;;;;;4.38;1.23;;;;;;;4.92;100.00;99858.47;4820653;29;20057;-81
2023/11/24 07:36:01;;;;;;;5.85;1.50;;;;;;;4.87;100.00;99851.56;4819578;29;20050;-82
2023/11/24 07:38:29;;;;;;;7.20;0.98;;;;;;;4.88;100.00;99858.47;4824941;29;20054;-82
2023/11/24 07:40:56;;;;;;;8.75;1.60;;;;;;;4.91;100.00;99861.91;4849734;29;20077;-81
2023/11/24 07:43:23;;;;;;;4.20;0.88;;;;;;;4.94;100.00;99848.09;4832481;29;20092;-81
2023/11/24 07:45:51;;;;;;;4.07;1.00;;;;;;;4.95;100.00;99839.44;4834747;29;20053;-82
2023/11/24 07:48:19;;;;;;;5.75;1.25;;;;;;;4.88;100.00;99824.75;4823361;29;20053;-82
2023/11/24 07:50:46;;;;;;;7.18;0.98;;;;;;;4.97;100.00;99828.22;4819528;29;20105;-83
2023/11/24 07:53:14;;;;;;;4.60;1.55;;;;;;;4.94;100.00;99825.63;4838565;29;20049;-83
2023/11/24 07:55:51;;;;;;;11.77;2.83;;;;;;;4.91;100.00;99822.16;4833562;29;20050;-82
2023/11/24 07:58:19;;;;;;;9.73;1.60;;;;;;;4.97;100.00;99815.25;4842251;29;20570;-80
2023/11/24 08:00:46;;;;;;;15.88;3.20;;;;;;;4.95;100.00;99810.91;4833509;29;20128;-83
2023/11/24 08:03:13;;;;;;;5.18;1.23;;;;;;;4.93;100.00;99805.72;4827306;29;20053;-83
2023/11/24 08:05:41;;;;;;;6.10;1.05;;;;;;;4.84;100.00;99810.91;4826859;29;20047;-83
2023/11/24 08:08:08;;;;;;;4.18;0.73;;;;;;;4.83;100.00;99805.75;4842054;29;20139;-82
2023/11/24 08:10:34;;;;;;;4.38;1.10;;;;;;;4.88;100.00;99812.66;4825458;29;20053;-83
2023/11/24 08:13:02;;;;;;;7.15;1.60;;;;;;;4.91;100.00;99798.81;4838928;29;20084;-83
2023/11/24 08:15:28;;;;;;;6.95;2.05;;;;;;;4.94;100.00;99810.06;4826944;29;20084;-84
2023/11/24 08:17:57;;;;;;;2.90;1.05;;;;;;;4.93;100.00;99807.47;4823224;29;20056;-81
2023/11/24 08:20:24;;;;;;;9.82;1.00;;;;;;;4.86;100.00;99796.22;4833276;29;20049;-83
2023/11/24 08:22:51;;;;;;;3.53;1.00;;;;;;;4.89;100.00;99796.22;4824326;29;20046;-83
2023/11/24 08:25:17;;;;;;;10.32;1.65;;;;;;;4.87;100.00;99797.94;4821931;29;20058;-82
2023/11/24 08:27:46;;;;;;;8.40;1.00;;;;;;;4.79;100.00;99787.56;4837621;29;20200;-84
2023/11/24 08:30:14;;;;;;;11.52;1.55;;;;;;;4.85;100.00;99793.63;4837500;29;20057;-82
2023/11/24 08:32:43;;;;;;;3.33;0.57;;;;;;;4.82;100.00;99791.03;4824390;29;20133;-81
2023/11/24 08:35:09;;;;;;;5.18;1.23;;;;;;;4.86;100.00;99787.56;4837206;29;20476;-84
2023/11/24 08:37:36;;;;;;;5.40;1.10;;;;;;;4.84;100.00;99792.78;4838322;29;20749;-81
2023/11/24 08:40:10;;;;;;;4.75;0.75;;;;;;;4.83;100.00;99796.22;4838481;29;20053;-82
2023/11/24 08:42:38;;;;;;;4.85;1.00;;;;;;;4.79;100.00;99774.59;4840630;29;20044;-82
2023/11/24 08:45:07;;;;;;;4.70;0.88;;;;;;;4.55;100.00;99757.31;4835746;29;20510;-83
2023/11/24 08:47:34;;;;;;;2.75;0.63;;;;;;;4.64;100.00;99779.78;4840682;29;20121;-81
2023/11/24 08:50:01;;;;;;;6.95;1.10;;;;;;;4.72;100.00;99779.78;4833922;29;20117;-83
2023/11/24 08:52:28;;;;;;;4.88;0.77;;;;;;;4.81;100.00;99777.22;4842398;29;20052;-83
2023/11/24 08:54:55;;;;;;;5.38;1.00;;;;;;;4.90;100.00;99760.78;4823716;29;20037;-81
2023/11/24 08:57:21;;;;;;;7.80;1.25;;;;;;;4.98;100.00;99753.88;4833563;29;20045;-83
2023/11/24 08:59:48;;;;;;;4.15;1.02;;;;;;;4.99;100.00;99762.50;4824285;29;20065;-83
2023/11/24 09:02:15;;;;;;;4.57;1.33;;;;;;;5.15;100.00;99772.03;4848253;29;20140;-83
2023/11/24 09:04:49;;;;;;;3.22;0.50;;;;;;;5.17;100.00;99764.22;4819046;29;20102;-83
2023/11/24 09:07:16;;;;;;;2.00;0.47;;;;;;;5.23;100.00;99759.88;4833624;29;20141;-82
2023/11/24 09:09:43;;;;;;;2.53;0.40;;;;;;;5.19;100.00;99744.31;4838313;29;20643;-82
2023/11/24 09:12:12;;;;;;;3.17;0.45;;;;;;;5.05;100.00;99740.03;4836136;29;20361;-81
2023/11/24 09:14:40;;;;;;;2.38;0.50;;;;;;;4.88;100.00;99736.59;4830742;29;20049;-82
2023/11/24 09:17:12;;;;;;;2.97;0.30;;;;;;;4.87;100.00;99724.47;4841110;29;20106;-81
2023/11/24 09:19:39;;;;;;;6.15;0.82;;;;;;;4.88;100.00;99726.22;4832982;29;20045;-83
2023/11/24 09:22:06;;;;;;;5.43;2.28;;;;;;;4.80;100.00;99721.03;4845513;29;20466;-83
2023/11/24 09:24:34;;;;;;;1.77;0.30;;;;;;;4.74;100.00;99731.41;4843360;29;20038;-80
2023/11/24 09:27:00;;;;;;;3.00;0.45;;;;;;;4.77;100.00;99723.59;4825114;29;20049;-82
2023/11/24 09:29:27;;;;;;;1.08;0.50;;;;;;;4.80;100.00;99728.81;4846019;29;20102;-81
2023/11/24 09:31:57;;;;;;;4.55;0.65;;;;;;;4.88;100.00;99727.06;4845569;29;20045;-83
2023/11/24 09:34:25;;;;;;;5.40;0.70;;;;;;;4.90;100.00;99711.50;4840047;29;20049;-81
2023/11/24 09:36:52;;;;;;;2.47;0.65;;;;;;;4.90;100.00;99708.91;4825699;29;20129;-82
2023/11/24 09:39:26;;;;;;;2.15;0.70;;;;;;;4.79;100.00;99702.00;4835644;29;20057;-82
2023/11/24 09:41:55;;;;;;;2.47;0.85;;;;;;;4.88;100.00;99698.53;4838263;29;20090;-82
2023/11/24 09:44:22;;;;;;;3.40;1.05;;;;;;;4.89;99.18;99696.81;4841327;29;20109;-82
2023/11/24 09:46:52;;;;;;;3.58;1.05;;;;;;;5.11;99.17;99695.91;4853989;29;20137;-83
2023/11/24 09:49:21;;;;;;;4.72;0.80;;;;;;;5.49;97.55;99709.66;4832444;29;20050;-81
2023/11/24 09:51:50;;;;;;;3.95;1.17;;;;;;;5.46;95.72;99692.38;4846856;29;20045;-81
2023/11/24 09:54:17;;;;;;;3.42;0.63;;;;;;;5.47;94.74;99686.31;4826242;29;20063;-82
2023/11/24 09:56:44;;;;;;;5.28;0.60;;;;;;;5.57;93.45;99700.09;4824134;29;20056;-82
2023/11/24 09:59:12;;;;;;;13.57;1.48;;;;;;;5.43;93.51;99701.88;4844889;29;20497;-81
2023/11/24 10:01:39;;;;;;;5.55;1.08;;;;;;;5.39;94.27;99697.56;4832730;29;20053;-82
2023/11/24 10:04:07;;;;;;;2.20;0.77;;;;;;;5.46;94.53;99692.38;4845595;29;20102;-81
2023/11/24 10:06:39;;;;;;;2.10;0.57;;;;;;;5.24;96.19;99695.88;4839416;29;20517;-83
2023/11/24 10:09:08;;;;;;;2.53;0.73;;;;;;;5.17;97.68;99687.25;4839910;29;20053;-83
2023/11/24 10:11:38;;;;;;;4.13;1.05;;;;;;;5.21;99.66;99678.56;4827250;29;20053;-83
2023/11/24 10:14:11;;;;;;;2.72;1.70;;;;;;;5.15;99.67;99673.44;4831504;29;20425;-82
2023/11/24 10:16:40;;;;;;;6.40;0.52;;;;;;;5.11;98.34;99663.91;4829418;29;20054;-81
2023/11/24 10:19:15;;;;;;;2.70;0.88;;;;;;;5.22;99.59;99656.97;4840693;29;20050;-82
2023/11/24 10:21:45;;;;;;;3.35;0.82;;;;;;;5.26;97.13;99650.88;4837080;29;20060;-81
2023/11/24 10:24:13;;;;;;;5.53;0.73;;;;;;;5.38;95.31;99633.56;4846074;29;20082;-84
2023/11/24 10:26:44;;;;;;;4.00;0.70;;;;;;;5.41;95.71;99639.59;4834680;29;20089;-81
2023/11/24 10:29:23;;;;;;;6.97;0.52;;;;;;;5.35;97.50;99633.59;4831661;29;20061;-82
2023/11/24 10:31:51;;;;;;;3.33;0.40;;;;;;;5.17;97.61;99619.78;4827846;29;20124;-82
2023/11/24 10:34:18;;;;;;;2.05;0.40;;;;;;;5.24;97.80;99625.81;4834160;29;20045;-82
2023/11/24 10:36:45;;;;;;;5.97;1.88;;;;;;;5.33;97.91;99602.41;4828802;29;20057;-81
2023/11/24 10:39:19;;;;;;;4.53;1.33;;;;;;;5.18;99.20;99605.94;4837746;29;20077;-82
2023/11/24 10:41:51;;;;;;;2.97;0.88;;;;;;;5.14;98.77;99594.72;4840020;29;20050;-83
2023/11/24 10:44:21;;;;;;;9.00;1.83;;;;;;;5.16;98.75;99597.31;4811059;29;20468;-82
2023/11/24 10:46:54;;;;;;;4.43;1.52;;;;;;;5.29;98.67;99593.81;4827220;29;20061;-83
2023/11/24 10:49:35;;;;;;;5.22;1.15;;;;;;;5.60;96.34;99591.03;4834284;29;20064;-83
2023/11/24 10:52:33;;;;;;;2.17;1.20;;;;;;;5.65;95.09;99579.78;4829186;29;20050;-82
2023/11/24 10:55:20;;;;;;;4.70;1.17;;;;;;;5.51;94.77;99567.72;4825753;29;20104;-83
2023/11/24 10:57:48;;;;;;;7.75;0.98;;;;;;;5.54;94.25;99580.72;4828118;29;20058;-83
2023/11/24 11:00:20;;;;;;;4.90;1.23;;;;;;;5.70;92.08;99567.63;4843102;29;20049;-82
2023/11/24 11:02:48;;;;;;;6.32;1.15;;;;;;;5.94;91.89;99575.25;4831555;29;20072;-80
2023/11/24 11:06:14;;;;;;;2.50;1.05;;;;;;;6.06;90.99;99573.44;4829871;29;20049;-82
2023/11/24 11:08:57;;;;;;;6.80;1.45;;;;;;;6.02;91.21;99559.63;4839312;29;20046;-82
2023/11/24 11:12:13;;;;;;;4.03;1.42;;;;;;;6.01;90.74;99563.13;4842690;29;20562;-83
2023/11/24 11:14:44;;;;;;;2.63;0.93;;;;;;;6.22;88.83;99545.59;4855935;29;20053;-82
2023/11/24 11:17:20;;;;;;;9.50;1.90;;;;;;;6.38;88.46;99546.34;4845553;29;20558;-83
2023/11/24 11:20:02;;;;;;;4.82;0.88;;;;;;;6.29;86.68;99553.31;4845600;29;20152;-82
2023/11/24 11:22:36;;;;;;;9.63;1.77;;;;;;;6.31;87.70;99542.06;4844334;29;20062;-83
2023/11/24 11:25:33;;;;;;;6.03;0.90;;;;;;;6.24;86.81;99523.91;4826623;29;20576;-81
2023/11/24 11:28:34;;;;;;;13.07;4.00;;;;;;;6.13;87.41;99517.97;4841532;29;20421;-82
2023/11/24 11:31:32;;;;;;;4.47;1.20;;;;;;;6.07;86.10;99518.88;4832631;29;20061;-82
2023/11/24 11:34:16;;;;;;;5.20;1.33;;;;;;;6.16;87.03;99514.50;4859704;29;20529;-83
2023/11/24 11:37:11;;;;;;;;;;;;;;;6.28;86.42;99509.16;4822476;29;20249;-81
2023/11/24 11:39:58;;;;;;;10.00;2.05;;;;;;;6.17;84.68;99504.06;4845670;29;19927;-81
2023/11/24 11:42:31;;;;;;;6.03;0.93;;;;;;;6.07;84.17;99495.50;4846538;29;20070;-82